Time;durP1;ratioP1;P1;durP2;ratioP2;P2;SDS_P1;SDS_P2;PMS_P1;PMS_P2;Temp;Humidity;BMP_temperature;BMP_pressure;BME280_temperature;BME280_humidity;BME280_pressure;Samples;Min_cycle;Max_cycle;Signal;HPM_P1;HPM_P2
2022/10/12 00:00:47;;;;;;;21.08;18.77;;;16.40;61.90;;;;;;20530;6837;339773;-82
2022/10/12 00:03:13;;;;;;;23.03;16.97;;;16.60;61.50;;;;;;20766;6838;116659;-82
2022/10/12 00:05:38;;;;;;;19.63;17.63;;;16.60;61.40;;;;;;20555;6838;307091;-81
2022/10/12 00:08:04;;;;;;;20.27;18.12;;;16.80;61.00;;;;;;20561;6838;278735;-81
2022/10/12 00:10:31;;;;;;;21.20;18.63;;;17.10;60.30;;;;;;20544;6838;307725;-82
2022/10/12 00:12:56;;;;;;;16.83;15.07;;;17.40;59.50;;;;;;20778;6838;122605;-81
2022/10/12 00:15:23;;;;;;;19.77;17.70;;;17.20;59.60;;;;;;20555;6838;307461;-81
2022/10/12 00:17:49;;;;;;;18.98;16.70;;;17.30;59.50;;;;;;20551;6838;311362;-82
2022/10/12 00:20:14;;;;;;;16.43;14.93;;;17.40;59.60;;;;;;20754;6838;117164;-82
2022/10/12 00:22:41;;;;;;;19.47;17.57;;;17.30;59.50;;;;;;20535;6839;276700;-82
2022/10/12 00:25:08;;;;;;;16.40;14.90;;;17.20;59.60;;;;;;20765;6839;117298;-82
2022/10/12 00:27:33;;;;;;;18.00;16.07;;;17.20;59.60;;;;;;20549;6839;306748;-82
2022/10/12 00:30:00;;;;;;;18.63;16.03;;;17.20;59.60;;;;;;20774;6839;116702;-81
2022/10/12 00:32:25;;;;;;;20.53;18.50;;;17.10;59.90;;;;;;20562;6839;277214;-81
2022/10/12 00:34:51;;;;;;;18.80;16.70;;;17.20;59.20;;;;;;20754;6839;119957;-80
2022/10/12 00:37:18;;;;;;;19.83;17.33;;;17.00;59.40;;;;;;20568;6839;281891;-81
2022/10/12 00:39:45;;;;;;;17.80;15.57;;;17.10;59.50;;;;;;20779;6839;117550;-82
2022/10/12 00:42:10;;;;;;;16.60;15.00;;;16.90;59.70;;;;;;20774;6839;119200;-82
2022/10/12 00:44:43;;;;;;;15.82;14.25;;;16.40;61.50;;;;;;20754;6839;117571;-82
2022/10/12 00:47:12;;;;;;;18.87;15.23;;;16.40;60.90;;;;;;20763;6838;115540;-81
2022/10/12 00:49:37;;;;;;;16.63;15.10;;;16.20;61.40;;;;;;20752;6839;117115;-82
2022/10/12 00:52:08;;;;;;;17.27;15.40;;;16.00;61.80;;;;;;20771;6839;117984;-82
2022/10/12 00:54:33;;;;;;;21.13;18.73;;;15.90;62.20;;;;;;20532;6839;308136;-82
2022/10/12 00:56:59;;;;;;;18.80;16.30;;;16.10;61.70;;;;;;20758;6839;118234;-80
2022/10/12 00:59:28;;;;;;;21.13;18.57;;;16.10;61.50;;;;;;20385;6839;311604;-81
2022/10/12 01:01:54;;;;;;;23.73;17.60;;;16.40;61.30;;;;;;20523;6839;118372;-82
2022/10/12 01:04:20;;;;;;;21.02;18.55;;;16.30;61.20;;;;;;20553;6839;307703;-82
2022/10/12 01:06:45;;;;;;;19.40;17.37;;;16.40;60.50;;;;;;20731;6839;118215;-81
2022/10/12 01:09:11;;;;;;;20.47;18.30;;;16.40;60.80;;;;;;20569;6839;281322;-81
2022/10/12 01:11:36;;;;;;;20.33;18.57;;;16.50;60.50;;;;;;20565;6839;292510;-82
2022/10/12 01:14:02;;;;;;;23.03;20.53;;;16.80;59.90;;;;;;20561;6837;311247;-82
2022/10/12 01:16:51;;;;;;;24.08;19.73;;;17.00;59.10;;;;;;20777;6838;117041;-82
2022/10/12 01:19:27;;;;;;;20.53;18.43;;;16.90;59.40;;;;;;20019;6857;118886;-81
2022/10/12 01:21:52;;;;;;;23.83;18.80;;;16.50;60.40;;;;;;20738;6857;68237;-82
2022/10/12 01:24:24;;;;;;;25.67;23.00;;;16.20;61.30;;;;;;20532;6838;308093;-80
2022/10/12 01:27:00;;;;;;;25.90;22.30;;;16.40;61.40;;;;;;20747;6838;116903;-81
2022/10/12 01:29:49;;;;;;;30.50;22.37;;;16.40;61.40;;;;;;20770;6838;116544;-80
2022/10/12 01:32:15;;;;;;;31.57;26.63;;;16.20;61.90;;;;;;20519;6838;286043;-81
2022/10/12 01:34:52;;;;;;;31.37;26.75;;;16.40;61.90;;;;;;20525;6839;278215;-80
2022/10/12 01:37:48;;;;;;;26.90;24.17;;;16.70;61.20;;;;;;20546;6839;309363;-80
2022/10/12 01:40:16;;;;;;;24.00;21.63;;;16.90;60.70;;;;;;20743;6839;120626;-85
2022/10/12 01:42:45;;;;;;;25.55;23.05;;;16.70;61.00;;;;;;20495;6839;340651;-81
2022/10/12 01:45:10;;;;;;;25.60;21.03;;;16.80;60.90;;;;;;20770;6839;117088;-81
2022/10/12 01:47:39;;;;;;;26.92;19.65;;;16.70;61.00;;;;;;20772;6839;121643;-82
2022/10/12 01:50:04;;;;;;;20.80;17.80;;;16.50;61.70;;;;;;20776;6839;117590;-81
2022/10/12 01:52:30;;;;;;;22.23;19.03;;;16.30;62.50;;;;;;20777;6839;117706;-82
2022/10/12 01:55:16;;;;;;;31.03;21.53;;;16.10;63.00;;;;;;20590;6839;117324;-80
2022/10/12 01:57:42;;;;;;;27.10;24.10;;;16.00;63.40;;;;;;20531;6839;308097;-81
2022/10/12 02:00:11;;;;;;;24.50;22.00;;;16.30;62.70;;;;;;20356;6839;307600;-81
2022/10/12 02:02:43;;;;;;;24.67;20.80;;;16.70;61.50;;;;;;20716;6839;117645;-81
2022/10/12 02:05:32;;;;;;;26.67;20.57;;;16.70;61.60;;;;;;20779;6839;117164;-81
2022/10/12 02:08:24;;;;;;;27.08;23.80;;;16.50;62.80;;;;;;20556;6839;278786;-80
2022/10/12 02:10:49;;;;;;;22.55;20.25;;;16.70;62.30;;;;;;20526;6839;402653;-80
2022/10/12 02:13:15;;;;;;;20.73;18.50;;;17.00;60.80;;;;;;20747;6839;118258;-80
2022/10/12 02:15:41;;;;;;;28.10;20.43;;;16.90;60.80;;;;;;20758;6839;118641;-82
2022/10/12 02:18:07;;;;;;;21.95;19.65;;;16.40;61.90;;;;;;20752;6839;117973;-83
2022/10/12 02:20:32;;;;;;;28.17;20.30;;;16.40;61.90;;;;;;20742;6839;121361;-81
2022/10/12 02:22:59;;;;;;;26.48;23.77;;;16.30;62.60;;;;;;20558;6839;305762;-80
2022/10/12 02:25:26;;;;;;;22.07;19.87;;;16.50;62.20;;;;;;20774;6837;119114;-80
2022/10/12 02:27:51;;;;;;;25.02;22.65;;;16.50;62.10;;;;;;20556;6838;307123;-81
2022/10/12 02:30:16;;;;;;;24.10;20.90;;;16.70;61.50;;;;;;20753;6838;117515;-81
2022/10/12 02:32:42;;;;;;;26.43;20.23;;;16.70;61.60;;;;;;20751;6838;117536;-81
2022/10/12 02:35:14;;;;;;;23.42;20.30;;;16.40;62.50;;;;;;20745;6838;116781;-81
2022/10/12 02:37:46;;;;;;;23.63;20.43;;;16.30;62.40;;;;;;20748;6838;117672;-82
2022/10/12 02:40:19;;;;;;;25.27;20.47;;;16.20;62.80;;;;;;20609;6838;118297;-82
2022/10/12 02:42:50;;;;;;;27.33;20.87;;;16.00;63.00;;;;;;20724;6838;126586;-81
2022/10/12 02:45:16;;;;;;;49.10;26.83;;;15.90;63.10;;;;;;20550;6839;320958;-79
2022/10/12 02:47:46;;;;;;;27.80;23.03;;;16.20;63.80;;;;;;20779;6839;120824;-81
2022/10/12 02:50:12;;;;;;;59.53;27.07;;;16.20;63.00;;;;;;20489;6857;279370;-82
2022/10/12 02:52:38;;;;;;;23.90;21.23;;;16.40;62.40;;;;;;20662;6857;117573;-81
2022/10/12 02:55:06;;;;;;;71.03;24.30;;;16.40;62.40;;;;;;20775;6839;116803;-81
2022/10/12 02:57:31;;;;;;;44.88;24.98;;;16.30;62.90;;;;;;20564;6839;312058;-81
2022/10/12 02:59:57;;;;;;;127.55;26.08;;;16.40;62.60;;;;;;20781;6839;118164;-81
2022/10/12 03:02:23;;;;;;;24.90;20.60;;;16.40;62.50;;;;;;20768;6839;119969;-81
2022/10/12 03:04:49;;;;;;;39.80;22.07;;;16.20;63.00;;;;;;20750;6839;120491;-80
2022/10/12 03:07:15;;;;;;;45.30;26.17;;;16.10;63.70;;;;;;20552;6839;306688;-81
2022/10/12 03:09:40;;;;;;;29.50;25.70;;;16.30;63.40;;;;;;20561;6839;306013;-80
2022/10/12 03:12:06;;;;;;;222.40;29.75;;;16.60;62.50;;;;;;20566;6839;309544;-83
2022/10/12 03:14:34;;;;;;;50.23;24.80;;;16.90;61.30;;;;;;20754;6839;120668;-83
2022/10/12 03:16:59;;;;;;;37.80;27.50;;;16.80;61.40;;;;;;20559;6839;307109;-81
2022/10/12 03:19:25;;;;;;;103.10;23.62;;;16.80;61.50;;;;;;20572;6858;117805;-81
2022/10/12 03:21:51;;;;;;;64.97;28.83;;;16.80;61.50;;;;;;20379;6843;313101;-82
2022/10/12 03:24:16;;;;;;;75.63;28.30;;;16.90;61.30;;;;;;20482;6858;341761;-82
2022/10/12 03:26:42;;;;;;;162.73;31.08;;;17.10;61.00;;;;;;20469;6858;306000;-82
2022/10/12 03:29:08;;;;;;;39.90;24.70;;;17.30;60.30;;;;;;20766;6839;118661;-81
2022/10/12 03:31:35;;;;;;;66.07;26.33;;;17.10;60.90;;;;;;20551;6839;308199;-82
2022/10/12 03:34:01;;;;;;;301.00;28.90;;;17.10;60.80;;;;;;20770;6839;116630;-81
2022/10/12 03:36:27;;;;;;;41.00;28.77;;;16.90;61.00;;;;;;20561;6837;301573;-82
2022/10/12 03:38:52;;;;;;;36.40;27.73;;;17.00;60.90;;;;;;20536;6838;278992;-81
2022/10/12 03:41:18;;;;;;;59.63;25.43;;;17.20;60.70;;;;;;20787;6838;117766;-82
2022/10/12 03:43:47;;;;;;;61.60;24.17;;;17.10;61.00;;;;;;20798;6838;75967;-81
2022/10/12 03:46:13;;;;;;;261.30;28.07;;;16.80;61.60;;;;;;20780;6838;118437;-82
2022/10/12 03:48:38;;;;;;;422.00;39.07;;;16.50;62.20;;;;;;20525;6838;335826;-81
2022/10/12 03:51:04;;;;;;;66.33;30.37;;;16.60;61.70;;;;;;20569;6838;277491;-81
2022/10/12 03:53:30;;;;;;;71.37;29.67;;;16.90;61.50;;;;;;20555;6838;277848;-81
2022/10/12 03:55:56;;;;;;;48.27;30.83;;;17.10;61.00;;;;;;20557;6839;312159;-81
2022/10/12 03:58:21;;;;;;;57.53;25.30;;;17.30;60.60;;;;;;20769;6839;118530;-82
2022/10/12 04:00:50;;;;;;;226.15;28.85;;;17.10;60.90;;;;;;20744;6839;118173;-82
2022/10/12 04:03:17;;;;;;;157.70;27.00;;;16.50;62.10;;;;;;20768;6839;117858;-80
2022/10/12 04:05:42;;;;;;;57.30;29.37;;;16.50;62.10;;;;;;20563;6839;283897;-82
2022/10/12 04:08:09;;;;;;;79.75;31.35;;;16.60;62.50;;;;;;20561;6839;307408;-82
2022/10/12 04:10:35;;;;;;;43.90;26.20;;;16.90;61.90;;;;;;20756;6839;116712;-82
2022/10/12 04:13:00;;;;;;;54.53;24.80;;;16.80;61.90;;;;;;20774;6839;116648;-83
2022/10/12 04:15:27;;;;;;;46.67;24.80;;;16.50;63.10;;;;;;20776;6839;121189;-80
2022/10/12 04:17:54;;;;;;;72.77;25.93;;;16.30;63.20;;;;;;20755;6839;116754;-82
2022/10/12 04:20:25;;;;;;;55.53;25.00;;;16.10;63.80;;;;;;20759;6839;118497;-80
2022/10/12 04:22:50;;;;;;;55.43;30.50;;;16.00;64.30;;;;;;20570;6839;276924;-81
2022/10/12 04:25:16;;;;;;;28.33;24.73;;;16.30;64.00;;;;;;20785;6839;116898;-80
2022/10/12 04:27:42;;;;;;;37.37;24.97;;;16.30;63.80;;;;;;20914;6633;118295;-85
2022/10/12 04:30:19;;;;;;;90.25;30.05;;;16.20;64.20;;;;;;20545;6833;306068;-84
2022/10/12 04:32:55;;;;;;;37.47;29.70;;;16.40;63.30;;;;;;20681;6733;310509;-83
2022/10/12 04:35:31;;;;;;;96.10;26.77;;;16.70;62.30;;;;;;20867;6723;117799;-83
2022/10/12 04:38:06;;;;;;;36.80;24.53;;;16.60;62.20;;;;;;20779;6768;117446;-85
2022/10/12 04:40:46;;;;;;;52.85;29.55;;;16.40;62.90;;;;;;20701;6723;314017;-84
2022/10/12 04:43:22;;;;;;;28.47;23.93;;;16.50;62.80;;;;;;20867;6747;121897;-85
2022/10/12 04:45:58;;;;;;;241.87;32.17;;;16.50;63.00;;;;;;20796;6766;117259;-84
2022/10/12 04:48:33;;;;;;;150.82;32.45;;;16.30;63.60;;;;;;20735;6715;305520;-85
2022/10/12 04:51:10;;;;;;;32.17;28.73;;;16.40;62.60;;;;;;20694;6738;290717;-85
2022/10/12 04:53:50;;;;;;;27.33;24.33;;;16.70;61.90;;;;;;20898;6794;116507;-85
2022/10/12 04:56:29;;;;;;;30.17;23.57;;;16.60;62.00;;;;;;20898;6723;116249;-85
2022/10/12 04:59:01;;;;;;;26.43;23.47;;;16.40;62.70;;;;;;21003;6708;119809;-84
2022/10/12 05:01:47;;;;;;;;;;;;;;;;;;;;;
2022/10/12 05:04:24;;;;;;;;;;;;;;;;;;;;;
2022/10/12 05:06:49;;;;;;;24.17;21.67;;;16.20;63.30;;;;;;20697;6723;118390;-88
2022/10/12 05:09:25;;;;;;;23.77;21.27;;;16.30;63.20;;;;;;20919;6738;67674;-86
2022/10/12 05:12:01;;;;;;;23.13;20.93;;;15.90;64.00;;;;;;20876;6753;117201;-85
2022/10/12 05:14:37;;;;;;;28.23;25.53;;;15.90;64.00;;;;;;20691;6727;308154;-85
2022/10/12 05:17:14;;;;;;;22.63;20.53;;;16.20;63.30;;;;;;20687;6743;118201;-83
2022/10/12 05:19:49;;;;;;;29.02;26.33;;;16.20;63.10;;;;;;20644;6748;306038;-83
2022/10/12 05:22:25;;;;;;;22.43;20.43;;;16.40;62.50;;;;;;20808;6747;114081;-83
2022/10/12 05:25:00;;;;;;;22.97;20.73;;;16.40;62.60;;;;;;20769;6741;117222;-82
2022/10/12 05:27:39;;;;;;;22.63;20.37;;;16.20;63.20;;;;;;20758;6732;123343;-82
2022/10/12 05:30:14;;;;;;;27.55;24.95;;;16.00;63.70;;;;;;20699;6710;310583;-83
2022/10/12 05:32:50;;;;;;;24.53;22.13;;;16.30;63.00;;;;;;20903;6732;117433;-82
2022/10/12 05:35:26;;;;;;;28.73;26.02;;;16.20;62.80;;;;;;20730;6721;335007;-83
2022/10/12 05:38:01;;;;;;;29.67;26.97;;;16.40;62.30;;;;;;20764;6706;305599;-82
2022/10/12 05:40:37;;;;;;;26.17;22.63;;;16.70;61.40;;;;;;20901;6723;121627;-83
2022/10/12 05:43:12;;;;;;;28.50;24.70;;;16.60;61.60;;;;;;20919;6723;116529;-82
2022/10/12 05:45:54;;;;;;;36.30;30.70;;;16.30;62.40;;;;;;20676;6721;310576;-83
2022/10/12 05:48:24;;;;;;;39.53;28.30;;;16.40;62.50;;;;;;20946;6721;117277;-82
2022/10/12 05:50:59;;;;;;;28.70;25.20;;;16.30;62.60;;;;;;20933;6723;116238;-83
2022/10/12 05:53:46;;;;;;;28.90;25.17;;;16.20;63.30;;;;;;20958;6721;117327;-85
2022/10/12 05:56:13;;;;;;;27.10;24.20;;;16.00;64.00;;;;;;20895;6716;120346;-85
2022/10/12 05:58:49;;;;;;;25.40;22.77;;;15.80;64.40;;;;;;20925;6721;128009;-84
2022/10/12 06:01:53;;;;;;;;;;;;;;;;;;;;;
2022/10/12 06:04:17;;;;;;;;;;;;;;;;;;;;;
2022/10/12 06:06:42;;;;;;;28.10;25.10;;;16.00;64.50;;;;;;20780;6718;117863;-85
2022/10/12 06:09:19;;;;;;;30.88;27.85;;;16.10;64.00;;;;;;20759;6712;275283;-85
2022/10/12 06:11:55;;;;;;;28.00;25.10;;;16.40;63.00;;;;;;20980;6712;116467;-85
2022/10/12 06:14:30;;;;;;;26.23;23.53;;;16.40;63.10;;;;;;20912;6732;120707;-85
2022/10/12 06:17:06;;;;;;;25.07;22.47;;;16.20;63.60;;;;;;20732;6803;118154;-84
2022/10/12 06:19:49;;;;;;;28.23;25.55;;;16.00;64.10;;;;;;20697;6732;276362;-85
2022/10/12 06:22:18;;;;;;;26.65;24.30;;;16.30;63.70;;;;;;20685;6732;306288;-85
2022/10/12 06:24:54;;;;;;;28.57;25.77;;;16.70;62.20;;;;;;20627;6794;307495;-86
2022/10/12 06:27:30;;;;;;;28.37;25.67;;;17.00;60.90;;;;;;20502;6733;280820;-86
2022/10/12 06:30:05;;;;;;;25.92;23.52;;;17.30;60.50;;;;;;20731;6717;274979;-87
2022/10/12 06:32:41;;;;;;;26.43;23.97;;;17.50;59.80;;;;;;20701;6714;276226;-86
2022/10/12 06:35:26;;;;;;;24.30;21.90;;;17.60;59.00;;;;;;20941;6714;117300;-87
2022/10/12 06:37:52;;;;;;;25.47;22.93;;;17.40;59.60;;;;;;20732;6776;120730;-86
2022/10/12 06:40:29;;;;;;;23.67;21.40;;;17.20;60.60;;;;;;20948;6715;118210;-87
2022/10/12 06:43:04;;;;;;;25.98;23.52;;;16.90;61.30;;;;;;20716;6718;275556;-86
2022/10/12 06:45:40;;;;;;;29.20;26.20;;;17.00;61.20;;;;;;20668;6735;281004;-86
2022/10/12 06:48:16;;;;;;;24.47;21.93;;;17.40;60.40;;;;;;20950;6719;122738;-86
2022/10/12 06:50:51;;;;;;;23.50;20.97;;;17.30;60.50;;;;;;20937;6717;120320;-85
2022/10/12 06:53:29;;;;;;;26.60;22.47;;;17.00;61.20;;;;;;20959;6715;120890;-86
2022/10/12 06:56:07;;;;;;;24.50;21.20;;;16.80;62.00;;;;;;20891;6715;117887;-85
2022/10/12 06:58:43;;;;;;;28.87;25.93;;;16.70;62.50;;;;;;20713;6717;278455;-85
2022/10/12 07:01:18;;;;;;;24.43;21.83;;;16.90;62.00;;;;;;20969;6714;120124;-86
2022/10/12 07:03:55;;;;;;;26.57;23.83;;;16.80;62.20;;;;;;20963;6714;117200;-86
2022/10/12 07:06:30;;;;;;;27.90;23.13;;;16.80;61.70;;;;;;20877;6714;117529;-85
2022/10/12 07:09:07;;;;;;;27.40;23.67;;;16.70;62.70;;;;;;20893;6732;117865;-86
2022/10/12 07:11:53;;;;;;;;;;;;;;;;;;;;;
2022/10/12 07:14:28;;;;;;;30.88;27.70;;;16.80;62.50;;;;;;20642;6746;305505;-87
2022/10/12 07:16:56;;;;;;;27.43;23.43;;;17.30;61.60;;;;;;20688;6743;117774;-86
2022/10/12 07:19:31;;;;;;;28.33;25.40;;;17.30;61.50;;;;;;20739;6713;280615;-86
2022/10/12 07:22:07;;;;;;;28.40;25.48;;;17.40;60.40;;;;;;20736;6717;334753;-87
2022/10/12 07:24:43;;;;;;;29.73;26.87;;;17.70;59.50;;;;;;20732;6717;307623;-87
2022/10/12 07:27:18;;;;;;;29.08;26.23;;;17.90;58.60;;;;;;20586;6715;308366;-88
2022/10/12 07:29:54;;;;;;;23.77;21.57;;;18.10;58.20;;;;;;20936;6717;117264;-87
2022/10/12 07:32:45;;;;;;;26.50;23.53;;;17.80;58.60;;;;;;20976;6717;117186;-87
2022/10/12 07:35:13;;;;;;;24.40;22.20;;;17.30;60.50;;;;;;20897;6732;123289;-86
2022/10/12 07:37:49;;;;;;;24.77;22.17;;;17.30;60.50;;;;;;20726;6732;118622;-87
2022/10/12 07:40:26;;;;;;;23.52;21.23;;;17.10;61.20;;;;;;20703;6717;309939;-87
2022/10/12 07:43:01;;;;;;;20.13;18.17;;;17.30;59.80;;;;;;20953;6717;117502;-87
2022/10/12 07:45:37;;;;;;;23.60;21.27;;;17.40;60.00;;;;;;20677;6717;336091;-87
2022/10/12 07:48:12;;;;;;;22.63;20.40;;;17.60;58.70;;;;;;20721;6717;305662;-86
2022/10/12 07:50:48;;;;;;;21.27;19.03;;;18.00;58.60;;;;;;20850;6735;118124;-87
2022/10/12 07:53:24;;;;;;;23.42;21.05;;;17.90;58.70;;;;;;20735;6717;277606;-87
2022/10/12 07:56:02;;;;;;;20.80;18.73;;;18.10;58.20;;;;;;20905;6717;117622;-87
2022/10/12 07:58:40;;;;;;;21.87;18.50;;;17.80;59.10;;;;;;20838;6750;122035;-87
2022/10/12 08:01:17;;;;;;;23.65;21.25;;;17.80;59.10;;;;;;20693;6732;309857;-86
2022/10/12 08:03:52;;;;;;;23.17;20.85;;;18.00;58.70;;;;;;20685;6753;333893;-86
2022/10/12 08:06:28;;;;;;;20.17;18.17;;;18.30;57.20;;;;;;20757;6768;117575;-86
2022/10/12 08:09:08;;;;;;;23.77;21.50;;;18.10;57.50;;;;;;20232;6810;282642;-95
2022/10/12 08:11:51;;;;;;;;;;;;;;;;;;;;;
2022/10/12 08:14:16;;;;;;;21.53;18.97;;;18.40;56.90;;;;;;20095;6738;115650;-86
2022/10/12 08:16:52;;;;;;;21.10;19.07;;;18.30;57.50;;;;;;20733;6753;117949;-86
2022/10/12 08:19:28;;;;;;;22.58;20.25;;;18.20;57.60;;;;;;20701;6738;276813;-87
2022/10/12 08:22:04;;;;;;;19.07;17.07;;;18.20;57.50;;;;;;20901;6742;120542;-86
2022/10/12 08:24:39;;;;;;;18.80;16.80;;;18.20;57.90;;;;;;20926;6730;145670;-84
2022/10/12 08:27:15;;;;;;;22.02;19.73;;;18.10;58.30;;;;;;20641;6723;308338;-86
2022/10/12 08:29:51;;;;;;;18.53;16.73;;;18.30;57.80;;;;;;20949;6723;117127;-86
2022/10/12 08:32:26;;;;;;;21.33;19.30;;;18.40;58.00;;;;;;20722;6723;335139;-87
2022/10/12 08:35:03;;;;;;;18.13;16.30;;;18.60;56.50;;;;;;20928;6723;264025;-86
2022/10/12 08:37:48;;;;;;;;;;;;;;;;;;;;;
2022/10/12 08:40:14;;;;;;;17.27;15.43;;;18.80;56.40;;;;;;20836;6753;117659;-86
2022/10/12 08:42:50;;;;;;;15.80;14.10;;;18.80;56.70;;;;;;20841;6762;124344;-87
2022/10/12 08:45:45;;;;;;;13.57;12.37;;;18.60;57.10;;;;;;20860;6748;117640;-87
2022/10/12 08:48:20;;;;;;;16.45;14.75;;;18.40;57.40;;;;;;20625;6763;307147;-86
2022/10/12 08:51:09;;;;;;;16.23;14.77;;;18.60;55.30;;;;;;20656;6744;278493;-86
2022/10/12 08:53:55;;;;;;;14.90;13.40;;;18.90;54.50;;;;;;20846;6744;119957;-86
2022/10/12 08:56:40;;;;;;;15.70;14.30;;;18.90;55.10;;;;;;20595;6743;337085;-87
2022/10/12 08:59:12;;;;;;;12.90;11.60;;;18.90;55.50;;;;;;20955;6717;117567;-86
2022/10/12 09:02:11;;;;;;;13.30;11.90;;;18.80;55.50;;;;;;20717;6720;335156;-87
2022/10/12 09:04:48;;;;;;;13.37;10.77;;;18.90;54.90;;;;;;20934;6717;119645;-87
2022/10/12 09:07:29;;;;;;;10.43;9.53;;;18.80;54.60;;;;;;20820;6723;122273;-87
2022/10/12 09:10:22;;;;;;;11.43;10.30;;;18.60;55.00;;;;;;20766;6709;305667;-87
2022/10/12 09:13:17;;;;;;;11.48;10.13;;;18.80;53.70;;;;;;20771;6753;276267;-87
2022/10/12 09:16:25;;;;;;;9.77;8.77;;;19.10;53.70;;;;;;20494;6750;117841;-87
2022/10/12 09:19:01;;;;;;;9.70;8.90;;;19.00;54.00;;;;;;20721;6709;310208;-87
2022/10/12 09:21:37;;;;;;;9.87;8.93;;;19.20;52.90;;;;;;20765;6709;275673;-87
2022/10/12 09:24:16;;;;;;;8.90;8.13;;;19.40;53.00;;;;;;20775;6709;276828;-88
2022/10/12 09:26:51;;;;;;;9.27;8.57;;;19.70;52.20;;;;;;20613;6709;310354;-88
2022/10/12 09:29:27;;;;;;;8.87;8.07;;;19.80;51.60;;;;;;20785;6702;305919;-87
2022/10/12 09:32:26;;;;;;;9.00;8.23;;;20.00;50.70;;;;;;20782;6702;305729;-86
2022/10/12 09:35:02;;;;;;;9.27;8.30;;;20.00;50.60;;;;;;20798;6702;305037;-86
2022/10/12 09:37:38;;;;;;;8.17;7.53;;;20.00;51.00;;;;;;20847;6701;117246;-87
2022/10/12 09:40:13;;;;;;;7.93;6.77;;;19.80;51.80;;;;;;20957;6716;118594;-86
2022/10/12 09:42:49;;;;;;;8.95;8.07;;;19.40;52.70;;;;;;20728;6717;305079;-87
2022/10/12 09:45:26;;;;;;;7.70;7.10;;;19.40;52.00;;;;;;20903;6733;117118;-87
2022/10/12 09:48:15;;;;;;;7.60;6.57;;;19.30;52.50;;;;;;20881;6741;117019;-87
2022/10/12 09:50:54;;;;;;;7.80;7.00;;;18.80;53.90;;;;;;20862;6738;117935;-87
2022/10/12 09:53:30;;;;;;;9.50;7.83;;;18.80;53.80;;;;;;20662;6741;304793;-87
2022/10/12 09:56:08;;;;;;;8.83;7.03;;;19.00;52.70;;;;;;20859;6732;117246;-87
2022/10/12 09:58:57;;;;;;;7.43;6.80;;;19.00;53.20;;;;;;20710;6717;276602;-87
2022/10/12 10:01:33;;;;;;;6.43;5.90;;;19.10;51.40;;;;;;20928;6717;116848;-87
2022/10/12 10:04:16;;;;;;;6.90;6.30;;;19.10;52.40;;;;;;20951;6717;117991;-87
2022/10/12 10:06:51;;;;;;;6.43;5.93;;;18.70;53.70;;;;;;20795;6717;117813;-87
2022/10/12 10:09:34;;;;;;;8.03;7.30;;;18.70;53.70;;;;;;20736;6717;305490;-87
2022/10/12 10:12:12;;;;;;;7.63;6.90;;;18.90;52.60;;;;;;20577;6732;310233;-85
2022/10/12 10:14:48;;;;;;;7.53;5.63;;;19.30;52.90;;;;;;20853;6732;122321;-86
2022/10/12 10:17:36;;;;;;;6.80;6.20;;;19.30;53.00;;;;;;20695;6732;118188;-84
2022/10/12 10:20:02;;;;;;;6.80;6.20;;;19.10;53.40;;;;;;20705;6725;276584;-85
2022/10/12 10:22:38;;;;;;;6.17;5.67;;;19.20;52.40;;;;;;20935;6714;116703;-84
2022/10/12 10:25:19;;;;;;;6.20;5.70;;;19.20;52.80;;;;;;20946;6773;119590;-85
2022/10/12 10:28:09;;;;;;;5.83;5.27;;;19.00;53.10;;;;;;20719;6788;118882;-85
2022/10/12 10:30:44;;;;;;;5.57;5.17;;;18.90;53.50;;;;;;20935;6717;126899;-85
2022/10/12 10:33:20;;;;;;;5.10;4.60;;;18.70;53.60;;;;;;20934;6723;117252;-85
2022/10/12 10:35:59;;;;;;;5.90;4.80;;;18.60;54.10;;;;;;20908;6723;119948;-86
2022/10/12 10:38:58;;;;;;;6.40;5.80;;;18.60;54.60;;;;;;20736;6709;309326;-86
2022/10/12 10:41:34;;;;;;;6.23;5.70;;;19.40;52.20;;;;;;20776;6709;294384;-86
2022/10/12 10:44:23;;;;;;;7.30;6.70;;;19.40;52.20;;;;;;20761;6709;335241;-85
2022/10/12 10:47:03;;;;;;;6.57;6.07;;;19.80;51.70;;;;;;20801;6707;117280;-85
2022/10/12 10:49:38;;;;;;;6.30;5.70;;;19.70;52.20;;;;;;20989;6708;117704;-85
2022/10/12 10:52:17;;;;;;;6.82;6.32;;;19.40;52.80;;;;;;20777;6708;336763;-84
2022/10/12 10:55:09;;;;;;;6.03;5.60;;;19.60;51.90;;;;;;20861;6763;119011;-85
2022/10/12 10:57:54;;;;;;;6.57;5.47;;;19.50;52.40;;;;;;20750;6718;117164;-85
2022/10/12 11:00:30;;;;;;;5.80;5.20;;;19.30;53.00;;;;;;20892;6737;119799;-83
2022/10/12 11:03:13;;;;;;;5.23;4.93;;;19.10;53.40;;;;;;20856;6751;117089;-85
2022/10/12 11:06:02;;;;;;;6.20;5.70;;;19.00;53.80;;;;;;20573;6747;279403;-84
2022/10/12 11:08:38;;;;;;;6.13;5.63;;;19.30;52.80;;;;;;20094;6811;124367;-85
2022/10/12 11:11:19;;;;;;;6.33;5.83;;;19.30;53.00;;;;;;20852;6755;118517;-85
2022/10/12 11:13:59;;;;;;;6.03;5.43;;;19.20;53.30;;;;;;20862;6749;116638;-84
2022/10/12 11:16:50;;;;;;;5.07;4.67;;;19.10;53.60;;;;;;20878;6732;119475;-84
2022/10/12 11:19:50;;;;;;;;;;;;;;;;;;;;;
2022/10/12 11:22:19;;;;;;;5.60;5.13;;;19.30;52.10;;;;;;20887;6720;118815;-85
2022/10/12 11:24:59;;;;;;;6.25;5.70;;;19.60;51.20;;;;;;20680;6732;335646;-85
2022/10/12 11:27:37;;;;;;;6.10;5.47;;;19.60;51.20;;;;;;20549;6739;309630;-86
2022/10/12 11:30:20;;;;;;;5.50;4.77;;;19.90;52.20;;;;;;20959;6709;117007;-86
2022/10/12 11:32:59;;;;;;;6.07;4.77;;;19.90;52.20;;;;;;20936;6709;117240;-85
2022/10/12 11:35:34;;;;;;;6.82;5.82;;;19.70;52.70;;;;;;20706;6709;310267;-86
2022/10/12 11:38:23;;;;;;;7.10;6.40;;;19.90;51.80;;;;;;20946;6726;117166;-86
2022/10/12 11:41:02;;;;;;;6.90;6.17;;;19.80;52.10;;;;;;20922;6723;117431;-86
2022/10/12 11:43:39;;;;;;;7.07;6.47;;;19.60;52.50;;;;;;20750;6715;338813;-86
2022/10/12 11:46:15;;;;;;;7.97;7.30;;;19.80;50.90;;;;;;20710;6711;277075;-85
2022/10/12 11:48:54;;;;;;;7.20;6.45;;;20.10;49.40;;;;;;20710;6718;340752;-86
2022/10/12 11:51:39;;;;;;;7.18;6.07;;;20.40;49.40;;;;;;20684;6738;307055;-85
2022/10/12 11:54:05;;;;;;;6.67;5.97;;;20.60;49.50;;;;;;20674;6738;305444;-86
2022/10/12 11:56:42;;;;;;;5.78;5.37;;;20.90;49.00;;;;;;20579;6738;288945;-87
2022/10/12 11:59:46;;;;;;;5.60;5.20;;;20.90;49.00;;;;;;20902;6737;115968;-86
2022/10/12 12:02:29;;;;;;;5.97;5.53;;;20.40;50.60;;;;;;20903;6738;120443;-87
2022/10/12 12:05:09;;;;;;;5.43;5.00;;;20.40;50.60;;;;;;20567;6803;123072;-87
2022/10/12 12:07:58;;;;;;;5.90;5.27;;;20.10;51.20;;;;;;20772;6731;123113;-87
2022/10/12 12:10:35;;;;;;;6.97;5.97;;;19.70;51.80;;;;;;20916;6717;123207;-87
2022/10/12 12:13:11;;;;;;;7.45;6.70;;;19.70;51.80;;;;;;20728;6723;319503;-87
2022/10/12 12:15:45;;;;;;;7.23;6.47;;;19.90;49.90;;;;;;20911;6723;117524;-87
2022/10/12 12:18:23;;;;;;;10.10;9.10;;;19.90;51.30;;;;;;20948;6723;117188;-87
2022/10/12 12:21:05;;;;;;;6.67;5.97;;;19.80;51.10;;;;;;20942;6717;117878;-88
2022/10/12 12:23:51;;;;;;;6.93;6.30;;;19.80;51.70;;;;;;20945;6718;117125;-88
2022/10/12 12:26:26;;;;;;;8.30;7.50;;;19.70;52.10;;;;;;20658;6723;290701;-87
2022/10/12 12:29:08;;;;;;;7.93;7.23;;;20.00;50.90;;;;;;20885;6732;117531;-88
2022/10/12 12:31:45;;;;;;;8.23;7.33;;;20.10;51.40;;;;;;20734;6717;305540;-87
2022/10/12 12:34:21;;;;;;;7.60;6.90;;;20.70;49.20;;;;;;20733;6717;276177;-89
2022/10/12 12:36:58;;;;;;;11.48;10.52;;;20.70;49.20;;;;;;20556;6717;308967;-88
2022/10/12 12:39:35;;;;;;;13.83;12.47;;;21.00;49.00;;;;;;20901;6732;119541;-88
2022/10/12 12:42:10;;;;;;;8.70;7.90;;;21.00;49.00;;;;;;20673;6732;310621;-89
2022/10/12 12:44:46;;;;;;;23.40;20.87;;;21.00;47.90;;;;;;20879;6732;119901;-87
2022/10/12 12:47:29;;;;;;;9.40;8.35;;;20.90;48.60;;;;;;20556;6731;308537;-90
2022/10/12 12:50:27;;;;;;;8.13;7.10;;;20.70;49.90;;;;;;20688;6802;115945;-92
2022/10/12 12:53:13;;;;;;;9.48;8.32;;;20.70;49.20;;;;;;20638;6746;324177;-87
2022/10/12 12:56:12;;;;;;;13.80;12.70;;;20.90;48.60;;;;;;20818;6746;119065;-90
2022/10/12 12:58:57;;;;;;;9.00;8.10;;;20.80;49.40;;;;;;20981;6701;117642;-87
2022/10/12 13:01:46;;;;;;;12.50;8.53;;;20.60;49.90;;;;;;20997;6701;116819;-87
2022/10/12 13:04:29;;;;;;;8.63;7.70;;;20.30;50.30;;;;;;20999;6701;117190;-88
2022/10/12 13:07:40;;;;;;;9.87;8.60;;;20.20;50.80;;;;;;20871;6701;117167;-88
2022/10/12 13:10:16;;;;;;;10.18;9.32;;;20.10;51.00;;;;;;20688;6716;334853;-86